Time;durP1;ratioP1;P1;durP2;ratioP2;P2;SDS_P1;SDS_P2;PMS_P1;PMS_P2;Temp;Humidity;BMP_temperature;BMP_pressure;BME280_temperature;BME280_humidity;BME280_pressure;Samples;Min_cycle;Max_cycle;Signal;HPM_P1;HPM_P2
2023/05/23 00:01:15;;;;;;;48.53;26.25;;;;;;;;;;4991324;28;20040;-90
2023/05/23 00:03:42;;;;;;;44.35;24.88;;;;;;;;;;5004513;28;20506;-90
2023/05/23 00:06:33;;;;;;;43.22;25.27;;;;;;;;;;5004809;28;20052;-90
2023/05/23 00:08:59;;;;;;;51.00;25.15;;;;;;;;;;4979592;28;20558;-89
2023/05/23 00:11:28;;;;;;;37.95;23.05;;;;;;;;;;4985970;28;20103;-89
2023/05/23 00:14:07;;;;;;;45.92;24.80;;;;;;;;;;5010112;28;20895;-91
2023/05/23 00:16:33;;;;;;;41.42;24.35;;;;;;;;;;4986684;28;20082;-90
2023/05/23 00:19:00;;;;;;;44.42;24.40;;;;;;;;;;5009505;28;20047;-90
2023/05/23 00:21:29;;;;;;;40.27;24.60;;;;;;;;;;5005320;28;20040;-91
2023/05/23 00:23:55;;;;;;;32.55;21.83;;;;;;;;;;5012962;28;20469;-91
2023/05/23 00:26:23;;;;;;;43.95;25.55;;;;;;;;;;5011269;28;20040;-91
2023/05/23 00:28:51;;;;;;;33.50;22.30;;;;;;;;;;5008801;28;20393;-92
2023/05/23 00:31:17;;;;;;;;;;;;;;;;;;5027125;28;20047;-91
2023/05/23 00:33:43;;;;;;;31.67;21.27;;;;;;;;;;5006771;28;19916;-91
2023/05/23 00:36:20;;;;;;;32.15;21.65;;;;;;;;;;4999590;28;20051;-91
2023/05/23 00:38:48;;;;;;;34.03;21.90;;;;;;;;;;5013358;28;20094;-90
2023/05/23 00:41:18;;;;;;;33.35;21.25;;;;;;;;;;5013901;28;20098;-91
2023/05/23 00:44:08;;;;;;;;;;;;;;;;;;;;;
2023/05/23 00:46:37;;;;;;;38.03;22.73;;;;;;;;;;5008715;28;20045;-91
2023/05/23 00:49:03;;;;;;;31.85;22.75;;;;;;;;;;5010853;28;20062;-93
2023/05/23 00:51:30;;;;;;;34.80;22.50;;;;;;;;;;4992042;28;20193;-92
2023/05/23 00:53:58;;;;;;;29.50;21.02;;;;;;;;;;5023441;28;20060;-91
2023/05/23 00:56:26;;;;;;;31.13;22.08;;;;;;;;;;4984621;28;20048;-91
2023/05/23 00:58:53;;;;;;;27.77;19.67;;;;;;;;;;4992283;28;20090;-92
2023/05/23 01:01:20;;;;;;;25.85;19.90;;;;;;;;;;5005175;28;20049;-91
2023/05/23 01:03:52;;;;;;;25.67;19.05;;;;;;;;;;4989185;28;20123;-91
2023/05/23 01:06:21;;;;;;;27.60;19.52;;;;;;;;;;5001018;28;20469;-91
2023/05/23 01:12:17;;;;;;;23.30;17.42;;;;;;;;;;5004927;28;20040;-91
2023/05/23 01:15:10;;;;;;;21.58;16.33;;;;;;;;;;4991766;28;20068;-90
2023/05/23 01:18:08;;;;;;;;;;;;;;;;;;;;;
2023/05/23 01:21:11;;;;;;;19.42;14.93;;;;;;;;;;5027644;28;20496;-91
2023/05/23 01:23:58;;;;;;;24.30;16.48;;;;;;;;;;4984959;28;20659;-91
2023/05/23 01:26:47;;;;;;;22.80;15.60;;;;;;;;;;4988772;28;20197;-91
2023/05/23 01:29:22;;;;;;;20.80;16.00;;;;;;;;;;5006453;28;20090;-91
2023/05/23 01:31:59;;;;;;;22.60;17.35;;;;;;;;;;4989606;28;20066;-92
2023/05/23 01:34:53;;;;;;;24.05;17.98;;;;;;;;;;5004421;28;20158;-91
2023/05/23 01:40:35;;;;;;;28.05;20.80;;;;;;;;;;4982618;28;20746;-91
2023/05/23 01:43:02;;;;;;;28.67;20.77;;;;;;;;;;5016608;28;20048;-91
2023/05/23 01:45:39;;;;;;;31.13;21.50;;;;;;;;;;4995441;28;20321;-90
2023/05/23 01:48:15;;;;;;;23.90;18.63;;;;;;;;;;5017412;28;20231;-91
2023/05/23 01:50:54;;;;;;;;;;;;;;;;;;;;;
2023/05/23 01:57:14;;;;;;;25.55;17.60;;;;;;;;;;5053360;22;20068;-89
2023/05/23 01:59:40;;;;;;;25.63;16.30;;;;;;;;;;4996829;28;20056;-89
2023/05/23 02:02:06;;;;;;;22.50;15.70;;;;;;;;;;5006642;28;20076;-89
2023/05/23 02:04:32;;;;;;;20.05;15.45;;;;;;;;;;5004319;28;20062;-89
2023/05/23 02:06:59;;;;;;;19.98;14.88;;;;;;;;;;4987987;28;20044;-89
2023/05/23 02:09:28;;;;;;;22.63;14.93;;;;;;;;;;5003854;28;20040;-90
2023/05/23 02:11:54;;;;;;;21.63;15.18;;;;;;;;;;5009125;28;20045;-89
2023/05/23 02:14:20;;;;;;;18.23;13.77;;;;;;;;;;5011103;28;20668;-89
2023/05/23 02:16:46;;;;;;;18.15;13.95;;;;;;;;;;4999786;28;20048;-89
2023/05/23 02:19:12;;;;;;;21.42;13.73;;;;;;;;;;5008320;28;20480;-89
2023/05/23 02:21:39;;;;;;;17.05;12.18;;;;;;;;;;4977488;28;20059;-90
2023/05/23 02:24:05;;;;;;;19.95;12.63;;;;;;;;;;5018642;28;20094;-90
2023/05/23 02:26:31;;;;;;;20.40;12.75;;;;;;;;;;4985900;28;20101;-89
2023/05/23 02:28:57;;;;;;;20.23;13.25;;;;;;;;;;5016982;28;20036;-90
2023/05/23 02:31:23;;;;;;;18.67;12.85;;;;;;;;;;5000082;28;20811;-90
2023/05/23 02:33:49;;;;;;;18.65;11.95;;;;;;;;;;5003557;28;20093;-91
2023/05/23 02:36:15;;;;;;;20.83;12.70;;;;;;;;;;4989128;28;20036;-90
2023/05/23 02:38:41;;;;;;;18.13;11.82;;;;;;;;;;5000679;28;20048;-90
2023/05/23 02:41:07;;;;;;;19.50;11.30;;;;;;;;;;4994935;28;20728;-90
2023/05/23 02:43:34;;;;;;;19.58;10.90;;;;;;;;;;5016172;28;20048;-90
2023/05/23 02:46:00;;;;;;;21.20;11.35;;;;;;;;;;5021727;28;20036;-90
2023/05/23 02:48:26;;;;;;;21.90;11.60;;;;;;;;;;5018634;28;20033;-90
2023/05/23 02:50:52;;;;;;;20.88;12.23;;;;;;;;;;5004589;28;20119;-89
2023/05/23 02:53:18;;;;;;;23.30;11.05;;;;;;;;;;5006704;28;20166;-90
2023/05/23 02:55:44;;;;;;;21.77;10.25;;;;;;;;;;4976859;28;20048;-90
2023/05/23 02:58:10;;;;;;;21.10;11.52;;;;;;;;;;5005280;28;20049;-90
2023/05/23 03:00:37;;;;;;;24.30;11.68;;;;;;;;;;4999772;28;20052;-90
2023/05/23 03:03:04;;;;;;;21.55;11.10;;;;;;;;;;5008186;28;20386;-90
2023/05/23 03:05:30;;;;;;;19.45;10.32;;;;;;;;;;5001254;28;20043;-90
2023/05/23 03:07:56;;;;;;;20.90;10.27;;;;;;;;;;5022017;28;20045;-90
2023/05/23 03:10:22;;;;;;;18.23;9.45;;;;;;;;;;5004836;28;20203;-89
2023/05/23 03:12:48;;;;;;;19.13;9.80;;;;;;;;;;5002150;28;20042;-89
2023/05/23 03:15:14;;;;;;;18.70;9.45;;;;;;;;;;5017759;28;20041;-89
2023/05/23 03:17:41;;;;;;;16.70;8.35;;;;;;;;;;5018350;28;20098;-90
2023/05/23 03:20:08;;;;;;;13.50;7.07;;;;;;;;;;5003248;28;20116;-89
2023/05/23 03:22:35;;;;;;;12.57;7.80;;;;;;;;;;5005974;28;20488;-89
2023/05/23 03:25:01;;;;;;;13.35;6.63;;;;;;;;;;5024515;28;20437;-89
2023/05/23 03:27:27;;;;;;;10.13;6.30;;;;;;;;;;5026347;28;20047;-90
2023/05/23 03:29:53;;;;;;;10.75;6.15;;;;;;;;;;4994815;28;20080;-90
2023/05/23 03:32:19;;;;;;;12.43;7.10;;;;;;;;;;5001545;28;20052;-89
2023/05/23 03:34:45;;;;;;;15.48;8.10;;;;;;;;;;5020611;28;21279;-89
2023/05/23 03:37:11;;;;;;;15.60;8.15;;;;;;;;;;5018157;28;20063;-89
2023/05/23 03:39:37;;;;;;;16.52;8.18;;;;;;;;;;5024512;28;20053;-89
2023/05/23 03:42:03;;;;;;;21.58;8.38;;;;;;;;;;5027303;28;20044;-89
2023/05/23 03:44:29;;;;;;;22.40;9.77;;;;;;;;;;4985146;28;20090;-89
2023/05/23 03:46:56;;;;;;;21.73;10.02;;;;;;;;;;5039245;28;20452;-88
2023/05/23 03:49:22;;;;;;;23.38;10.93;;;;;;;;;;5021754;28;20045;-89
2023/05/23 03:51:48;;;;;;;21.80;9.77;;;;;;;;;;4987426;28;20044;-90
2023/05/23 03:54:16;;;;;;;18.27;10.02;;;;;;;;;;5015055;28;20041;-89
2023/05/23 03:56:42;;;;;;;25.60;10.50;;;;;;;;;;4999823;28;20056;-89
2023/05/23 03:59:08;;;;;;;17.35;9.35;;;;;;;;;;4988489;28;20503;-90
2023/05/23 04:01:34;;;;;;;22.27;9.82;;;;;;;;;;4976328;28;20091;-89
2023/05/23 04:04:00;;;;;;;23.90;10.10;;;;;;;;;;5018444;28;20138;-89
2023/05/23 04:06:30;;;;;;;20.73;10.85;;;;;;;;;;4980784;28;20787;-89
2023/05/23 04:08:56;;;;;;;22.08;10.40;;;;;;;;;;5013768;28;20159;-89
2023/05/23 04:11:22;;;;;;;20.52;9.82;;;;;;;;;;4980112;28;20080;-90
2023/05/23 04:13:48;;;;;;;22.05;10.15;;;;;;;;;;4999551;28;20147;-90
2023/05/23 04:16:15;;;;;;;21.95;9.63;;;;;;;;;;4987516;28;20532;-89
2023/05/23 04:18:42;;;;;;;23.08;9.43;;;;;;;;;;4984827;28;20490;-90
2023/05/23 04:21:08;;;;;;;21.10;9.63;;;;;;;;;;4989045;28;20694;-90
2023/05/23 04:23:35;;;;;;;18.45;8.15;;;;;;;;;;5003175;28;20094;-90
2023/05/23 04:26:01;;;;;;;15.88;8.00;;;;;;;;;;5012894;28;20134;-89
2023/05/23 04:28:27;;;;;;;19.98;7.78;;;;;;;;;;4992235;28;20093;-89
2023/05/23 04:30:55;;;;;;;18.35;8.38;;;;;;;;;;4985537;28;20055;-89
2023/05/23 04:33:21;;;;;;;18.07;7.87;;;;;;;;;;4990361;28;20175;-89
2023/05/23 04:35:48;;;;;;;17.67;8.05;;;;;;;;;;4977492;28;20666;-90
2023/05/23 04:38:14;;;;;;;14.95;7.45;;;;;;;;;;4985263;28;20045;-90
2023/05/23 04:40:40;;;;;;;19.48;7.15;;;;;;;;;;4972855;28;20037;-90
2023/05/23 04:43:08;;;;;;;18.65;7.47;;;;;;;;;;5000442;28;20390;-90
2023/05/23 04:45:35;;;;;;;;;;;;;;;;;;4977012;28;20040;-90
2023/05/23 04:48:02;;;;;;;11.82;6.70;;;;;;;;;;5000559;28;19931;-89
2023/05/23 04:50:31;;;;;;;20.50;7.53;;;;;;;;;;4978842;28;20404;-90
2023/05/23 04:52:57;;;;;;;19.15;6.90;;;;;;;;;;5003114;28;20049;-90
2023/05/23 04:55:24;;;;;;;17.55;7.15;;;;;;;;;;4989187;28;20194;-89
2023/05/23 04:57:50;;;;;;;16.92;6.63;;;;;;;;;;4982218;28;20057;-90
2023/05/23 05:00:19;;;;;;;20.73;6.88;;;;;;;;;;4964568;28;20041;-90
2023/05/23 05:02:45;;;;;;;16.20;6.97;;;;;;;;;;4964576;28;20594;-89
2023/05/23 05:05:11;;;;;;;17.45;6.55;;;;;;;;;;4980597;28;21614;-89
2023/05/23 05:07:38;;;;;;;19.05;6.60;;;;;;;;;;4990588;28;20058;-89
2023/05/23 05:10:04;;;;;;;21.85;6.60;;;;;;;;;;4994626;28;20045;-90
2023/05/23 05:12:30;;;;;;;16.77;6.40;;;;;;;;;;4978700;28;20053;-89
2023/05/23 05:14:56;;;;;;;16.33;6.50;;;;;;;;;;5003107;28;20049;-90
2023/05/23 05:17:23;;;;;;;14.70;5.45;;;;;;;;;;4967611;28;20048;-90
2023/05/23 05:19:49;;;;;;;18.50;6.22;;;;;;;;;;4976551;28;20044;-89
2023/05/23 05:22:16;;;;;;;13.63;5.28;;;;;;;;;;4977122;28;20045;-90
2023/05/23 05:28:21;;;;;;;17.67;5.50;;;;;;;;;;5081661;23;20447;-95
2023/05/23 05:31:31;;;;;;;;;;;;;;;;;;;;;
2023/05/23 05:34:42;;;;;;;16.77;5.90;;;;;;;;;;5031993;28;20044;-96
2023/05/23 05:37:19;;;;;;;13.65;6.45;;;;;;;;;;4991316;28;20405;-96
2023/05/23 06:24:03;;;;;;;21.65;7.70;;;;;;;;;;5029250;28;20049;-89
2023/05/23 06:26:29;;;;;;;20.75;7.20;;;;;;;;;;5009186;28;20077;-89
2023/05/23 06:28:55;;;;;;;14.10;7.13;;;;;;;;;;4976065;28;21379;-89
2023/05/23 06:31:21;;;;;;;17.00;7.60;;;;;;;;;;4992611;28;20041;-89
2023/05/23 06:33:47;;;;;;;11.73;6.03;;;;;;;;;;4993256;28;20489;-89
2023/05/23 06:36:14;;;;;;;12.77;5.55;;;;;;;;;;5001304;28;20037;-89
2023/05/23 06:38:40;;;;;;;16.20;6.65;;;;;;;;;;5009339;28;20489;-90
2023/05/23 06:41:06;;;;;;;13.32;5.65;;;;;;;;;;5001693;28;20055;-89
2023/05/23 06:43:32;;;;;;;17.05;5.88;;;;;;;;;;5014946;28;20046;-89
2023/05/23 06:45:58;;;;;;;12.15;5.25;;;;;;;;;;4985976;28;20037;-90
2023/05/23 06:48:27;;;;;;;12.82;4.85;;;;;;;;;;5005671;28;20206;-89
2023/05/23 06:50:53;;;;;;;11.45;5.25;;;;;;;;;;5021729;28;20489;-89
2023/05/23 06:53:19;;;;;;;9.35;4.68;;;;;;;;;;5004473;28;20573;-90
2023/05/23 06:55:45;;;;;;;11.07;4.82;;;;;;;;;;4998580;28;21376;-90
2023/05/23 06:58:11;;;;;;;12.40;4.88;;;;;;;;;;5020719;28;20037;-90
2023/05/23 07:00:37;;;;;;;15.80;5.40;;;;;;;;;;4987002;28;20493;-89
2023/05/23 07:03:04;;;;;;;11.80;4.68;;;;;;;;;;5022214;28;20080;-90
2023/05/23 07:05:32;;;;;;;12.25;4.63;;;;;;;;;;4994706;28;20040;-90
2023/05/23 07:07:58;;;;;;;15.40;5.35;;;;;;;;;;4996634;28;20067;-90
2023/05/23 07:10:25;;;;;;;14.35;4.95;;;;;;;;;;4997744;28;20565;-90
2023/05/23 07:12:51;;;;;;;14.50;4.55;;;;;;;;;;5002780;28;20037;-90
2023/05/23 07:15:17;;;;;;;19.50;5.60;;;;;;;;;;4985058;28;20072;-90
2023/05/23 07:17:43;;;;;;;15.80;5.10;;;;;;;;;;4989880;28;20052;-90
2023/05/23 07:20:09;;;;;;;17.95;4.93;;;;;;;;;;4983267;28;20477;-89
2023/05/23 07:22:35;;;;;;;16.08;5.53;;;;;;;;;;4986925;28;20053;-90
2023/05/23 07:25:02;;;;;;;13.63;4.68;;;;;;;;;;5011777;28;20037;-90
2023/05/23 07:27:28;;;;;;;17.27;5.20;;;;;;;;;;5013628;28;20052;-90
2023/05/23 07:29:56;;;;;;;16.58;5.82;;;;;;;;;;5017554;28;20029;-91
2023/05/23 07:32:22;;;;;;;15.65;5.18;;;;;;;;;;5025553;28;20187;-89
2023/05/23 07:34:48;;;;;;;20.45;4.68;;;;;;;;;;4977397;28;20056;-89
2023/05/23 07:37:14;;;;;;;20.40;5.38;;;;;;;;;;4996788;28;20053;-89
2023/05/23 07:39:41;;;;;;;16.42;5.18;;;;;;;;;;4993594;28;20049;-89
2023/05/23 07:42:07;;;;;;;17.88;5.50;;;;;;;;;;4990891;28;20036;-90
2023/05/23 07:44:33;;;;;;;17.75;5.57;;;;;;;;;;4978621;28;20136;-90
2023/05/23 07:46:59;;;;;;;14.38;4.47;;;;;;;;;;5015030;28;20540;-90
2023/05/23 07:49:28;;;;;;;16.73;4.57;;;;;;;;;;5020662;28;20041;-89
2023/05/23 07:51:54;;;;;;;14.93;3.72;;;;;;;;;;4987949;28;20128;-89
2023/05/23 07:54:21;;;;;;;15.55;4.10;;;;;;;;;;5009754;28;20041;-89
2023/05/23 07:56:47;;;;;;;16.27;4.43;;;;;;;;;;4976760;28;20099;-90
2023/05/23 07:59:13;;;;;;;16.73;4.10;;;;;;;;;;5005818;28;20041;-89
2023/05/23 08:01:39;;;;;;;16.40;5.13;;;;;;;;;;5010527;28;20041;-89
2023/05/23 08:04:05;;;;;;;18.50;5.07;;;;;;;;;;5012433;28;20044;-89
2023/05/23 08:06:32;;;;;;;17.48;4.47;;;;;;;;;;4996758;28;20511;-90
2023/05/23 08:08:58;;;;;;;18.52;4.63;;;;;;;;;;5022862;28;20041;-90
2023/05/23 08:11:29;;;;;;;19.13;4.80;;;;;;;;;;4985140;28;20045;-89
2023/05/23 08:13:55;;;;;;;18.10;4.75;;;;;;;;;;5002666;28;20143;-89
2023/05/23 08:16:21;;;;;;;17.83;3.95;;;;;;;;;;5003871;28;20117;-88
2023/05/23 08:18:47;;;;;;;15.93;4.88;;;;;;;;;;4980719;28;20398;-89
2023/05/23 08:21:14;;;;;;;15.70;4.63;;;;;;;;;;4994653;28;20180;-90
2023/05/23 08:23:40;;;;;;;16.95;4.55;;;;;;;;;;4969922;28;20455;-88
2023/05/23 08:26:06;;;;;;;14.10;4.50;;;;;;;;;;5037533;28;20037;-88
2023/05/23 08:28:33;;;;;;;14.07;3.90;;;;;;;;;;4994940;28;20131;-89
2023/05/23 08:30:59;;;;;;;18.83;4.68;;;;;;;;;;4999411;28;20045;-89
2023/05/23 08:33:26;;;;;;;16.17;4.65;;;;;;;;;;4991804;28;20394;-90
2023/05/23 08:35:52;;;;;;;15.75;4.25;;;;;;;;;;4981344;28;20092;-89
2023/05/23 08:38:20;;;;;;;16.85;4.63;;;;;;;;;;5006129;28;20037;-88
2023/05/23 08:40:49;;;;;;;16.60;4.45;;;;;;;;;;4980763;28;20053;-89
2023/05/23 08:43:16;;;;;;;17.08;4.45;;;;;;;;;;4996780;28;20124;-89
2023/05/23 08:45:42;;;;;;;16.40;4.07;;;;;;;;;;5027928;28;20037;-89
2023/05/23 08:48:12;;;;;;;16.33;4.78;;;;;;;;;;4996086;28;20124;-89
2023/05/23 08:50:38;;;;;;;14.93;4.40;;;;;;;;;;4990894;28;20049;-89
2023/05/23 08:53:07;;;;;;;16.48;4.38;;;;;;;;;;4989336;28;20052;-89
2023/05/23 08:55:33;;;;;;;21.15;4.70;;;;;;;;;;4989385;28;20037;-89
2023/05/23 08:57:59;;;;;;;14.95;3.90;;;;;;;;;;4996559;28;20037;-89
2023/05/23 09:00:29;;;;;;;16.50;4.30;;;;;;;;;;4978884;28;20045;-89
2023/05/23 09:02:55;;;;;;;14.82;4.57;;;;;;;;;;4994370;28;20087;-88
2023/05/23 09:05:21;;;;;;;12.95;4.20;;;;;;;;;;4993350;28;20485;-88
2023/05/23 09:07:48;;;;;;;15.35;4.15;;;;;;;;;;4997535;28;20035;-89
2023/05/23 09:10:15;;;;;;;15.63;4.10;;;;;;;;;;4999191;28;20493;-88
2023/05/23 09:12:42;;;;;;;13.10;3.95;;;;;;;;;;4998666;28;20056;-89
2023/05/23 09:15:09;;;;;;;17.08;4.55;;;;;;;;;;4998224;28;20123;-89
2023/05/23 09:17:36;;;;;;;15.88;4.50;;;;;;;;;;4998242;28;20469;-88
2023/05/23 09:20:06;;;;;;;19.15;4.78;;;;;;;;;;5020298;28;20049;-88
2023/05/23 09:22:32;;;;;;;20.80;4.25;;;;;;;;;;4997831;28;20045;-88
2023/05/23 09:24:58;;;;;;;14.32;4.13;;;;;;;;;;4987679;28;20060;-88
2023/05/23 09:27:24;;;;;;;16.45;4.35;;;;;;;;;;4982886;28;20045;-89
2023/05/23 09:29:51;;;;;;;17.15;4.45;;;;;;;;;;4965673;28;20033;-88
2023/05/23 09:32:17;;;;;;;12.38;3.85;;;;;;;;;;5001636;28;20394;-88
2023/05/23 09:34:50;;;;;;;12.82;4.50;;;;;;;;;;4988433;28;20052;-89
2023/05/23 09:37:18;;;;;;;13.38;4.38;;;;;;;;;;4998972;28;20041;-89
2023/05/23 09:39:50;;;;;;;12.75;4.03;;;;;;;;;;4979493;28;20505;-88
2023/05/23 09:42:22;;;;;;;15.60;4.32;;;;;;;;;;5002344;28;20045;-88
2023/05/23 09:44:49;;;;;;;12.63;4.00;;;;;;;;;;4992469;28;20033;-88
2023/05/23 09:47:15;;;;;;;13.52;3.72;;;;;;;;;;4983286;28;20058;-88
2023/05/23 09:49:45;;;;;;;13.20;3.78;;;;;;;;;;4991367;28;20159;-88
2023/05/23 09:52:12;;;;;;;11.93;3.75;;;;;;;;;;4988301;28;20624;-88
2023/05/23 09:54:38;;;;;;;13.40;4.20;;;;;;;;;;4988329;28;20107;-88
2023/05/23 09:57:05;;;;;;;11.43;3.72;;;;;;;;;;4991881;28;20045;-88
2023/05/23 09:59:31;;;;;;;15.98;4.10;;;;;;;;;;4998200;28;20045;-88
2023/05/23 10:01:57;;;;;;;15.35;3.85;;;;;;;;;;4963083;28;20041;-88
2023/05/23 10:04:23;;;;;;;13.07;3.60;;;;;;;;;;5002442;28;20038;-87
2023/05/23 10:06:53;;;;;;;14.30;4.15;;;;;;;;;;4994486;28;20033;-89
2023/05/23 10:09:20;;;;;;;11.07;3.70;;;;;;;;;;4991963;28;20061;-88
2023/05/23 10:11:59;;;;;;;14.10;4.18;;;;;;;;;;5004154;28;20099;-88
2023/05/23 10:14:25;;;;;;;16.80;4.40;;;;;;;;;;4981108;28;20151;-87
2023/05/23 10:17:12;;;;;;;15.13;3.88;;;;;;;;;;4984536;28;20077;-88
2023/05/23 10:19:40;;;;;;;15.25;4.43;;;;;;;;;;4995767;28;20049;-88
2023/05/23 10:22:06;;;;;;;13.68;4.15;;;;;;;;;;5006270;28;20044;-88
2023/05/23 10:24:33;;;;;;;12.07;3.83;;;;;;;;;;4983648;28;20084;-87
2023/05/23 10:26:59;;;;;;;12.02;3.53;;;;;;;;;;5027069;28;20505;-87
2023/05/23 10:29:29;;;;;;;10.68;3.67;;;;;;;;;;5021458;28;20099;-88
2023/05/23 10:31:55;;;;;;;14.38;3.67;;;;;;;;;;5000314;28;20145;-87
2023/05/23 10:34:44;;;;;;;12.68;3.58;;;;;;;;;;5024330;28;20163;-88
2023/05/23 10:37:12;;;;;;;9.73;3.03;;;;;;;;;;4971813;28;20044;-87
2023/05/23 10:39:45;;;;;;;15.13;3.60;;;;;;;;;;4982517;28;20041;-88
2023/05/23 10:42:15;;;;;;;11.07;3.35;;;;;;;;;;5020548;28;20086;-88
2023/05/23 10:44:41;;;;;;;15.93;4.13;;;;;;;;;;5001919;28;20375;-88
2023/05/23 10:47:07;;;;;;;12.30;3.78;;;;;;;;;;4990497;28;20044;-87
2023/05/23 10:49:43;;;;;;;8.77;3.08;;;;;;;;;;4998161;28;20470;-87
2023/05/23 10:52:10;;;;;;;12.45;3.60;;;;;;;;;;5009598;28;20068;-87
2023/05/23 10:54:53;;;;;;;11.00;3.45;;;;;;;;;;5001551;28;21554;-87
2023/05/23 10:57:20;;;;;;;12.68;3.47;;;;;;;;;;5024378;28;20090;-87
2023/05/23 10:59:46;;;;;;;11.85;3.28;;;;;;;;;;4982349;28;20528;-87
2023/05/23 11:02:14;;;;;;;14.27;3.47;;;;;;;;;;5025107;28;20041;-87
2023/05/23 11:04:41;;;;;;;13.10;3.53;;;;;;;;;;5016573;28;20493;-87
2023/05/23 11:07:08;;;;;;;15.18;3.65;;;;;;;;;;4990117;28;20087;-87
2023/05/23 11:09:34;;;;;;;12.82;3.33;;;;;;;;;;4981695;28;20515;-87
2023/05/23 11:12:04;;;;;;;12.38;3.40;;;;;;;;;;5045203;28;20393;-88
2023/05/23 11:14:31;;;;;;;10.75;3.22;;;;;;;;;;5001007;28;20052;-87
2023/05/23 11:16:57;;;;;;;14.07;3.45;;;;;;;;;;5030812;28;20491;-88
2023/05/23 11:19:29;;;;;;;15.15;3.78;;;;;;;;;;5012575;28;20048;-88
2023/05/23 11:22:01;;;;;;;11.10;3.30;;;;;;;;;;5003278;28;20588;-87
2023/05/23 11:24:46;;;;;;;11.82;3.00;;;;;;;;;;4985625;28;20064;-87
2023/05/23 11:27:13;;;;;;;12.27;3.63;;;;;;;;;;5014911;28;20041;-88
2023/05/23 11:29:39;;;;;;;11.70;3.10;;;;;;;;;;5003869;28;20053;-87
2023/05/23 11:32:12;;;;;;;9.07;3.03;;;;;;;;;;4990931;28;20041;-87
2023/05/23 11:34:38;;;;;;;10.75;3.53;;;;;;;;;;4993275;28;20064;-88
2023/05/23 11:37:04;;;;;;;8.43;2.63;;;;;;;;;;5017595;28;20047;-87
2023/05/23 11:39:30;;;;;;;11.25;3.15;;;;;;;;;;4988023;28;20086;-87
2023/05/23 11:42:00;;;;;;;16.00;3.33;;;;;;;;;;5009433;28;20489;-86
2023/05/23 11:44:26;;;;;;;11.10;3.85;;;;;;;;;;4988534;28;20044;-87
2023/05/23 11:47:02;;;;;;;10.15;3.63;;;;;;;;;;4998692;28;20048;-87
2023/05/23 11:49:29;;;;;;;11.80;3.85;;;;;;;;;;4998471;28;20064;-87
2023/05/23 11:51:55;;;;;;;12.18;3.38;;;;;;;;;;5012392;28;20111;-87
2023/05/23 11:54:27;;;;;;;12.27;3.08;;;;;;;;;;4999970;28;20090;-87
2023/05/23 11:56:53;;;;;;;8.88;3.13;;;;;;;;;;4988911;28;20037;-86
2023/05/23 11:59:20;;;;;;;10.50;3.25;;;;;;;;;;4990496;28;20053;-87
2023/05/23 12:01:46;;;;;;;9.82;3.50;;;;;;;;;;5006948;28;20053;-87
2023/05/23 12:04:13;;;;;;;11.82;3.10;;;;;;;;;;4996520;28;20029;-88
2023/05/23 12:06:40;;;;;;;13.35;5.28;;;;;;;;;;4967581;28;20040;-88
2023/05/23 12:09:06;;;;;;;23.47;15.27;;;;;;;;;;4989801;28;20036;-87
2023/05/23 12:11:33;;;;;;;14.93;5.78;;;;;;;;;;5008007;28;21970;-88
2023/05/23 12:14:01;;;;;;;15.88;7.30;;;;;;;;;;5002598;28;20401;-87
2023/05/23 12:16:28;;;;;;;15.30;6.95;;;;;;;;;;5020204;28;20049;-86
2023/05/23 12:18:55;;;;;;;14.75;5.80;;;;;;;;;;4996488;28;20374;-87
2023/05/23 12:21:23;;;;;;;11.75;4.05;;;;;;;;;;5009080;28;20111;-87
2023/05/23 12:23:49;;;;;;;10.70;4.10;;;;;;;;;;5002156;28;20061;-87
2023/05/23 12:26:15;;;;;;;12.25;3.70;;;;;;;;;;4998531;28;20044;-87
2023/05/23 12:28:43;;;;;;;12.73;3.05;;;;;;;;;;5019651;28;20033;-86
2023/05/23 12:31:15;;;;;;;8.95;3.95;;;;;;;;;;5009123;28;20119;-87
2023/05/23 12:33:46;;;;;;;14.13;5.55;;;;;;;;;;4997968;28;20481;-87
2023/05/23 12:36:12;;;;;;;11.52;3.10;;;;;;;;;;4983442;28;20509;-87
2023/05/23 12:38:39;;;;;;;7.07;3.15;;;;;;;;;;4996301;28;20471;-87
2023/05/23 12:41:12;;;;;;;11.43;3.38;;;;;;;;;;4967687;28;20053;-87
2023/05/23 12:43:39;;;;;;;10.73;3.75;;;;;;;;;;4994426;28;20045;-87
2023/05/23 12:46:06;;;;;;;12.70;3.97;;;;;;;;;;4987002;28;20484;-87
2023/05/23 12:48:32;;;;;;;11.75;2.83;;;;;;;;;;4995177;28;20037;-88
2023/05/23 12:50:59;;;;;;;10.65;3.20;;;;;;;;;;5010048;28;20041;-87
2023/05/23 12:53:28;;;;;;;20.55;12.40;;;;;;;;;;4978678;28;20047;-87
2023/05/23 12:55:56;;;;;;;43.35;32.38;;;;;;;;;;4989893;28;20528;-86
2023/05/23 12:58:22;;;;;;;13.93;4.53;;;;;;;;;;4998437;28;20055;-87
2023/05/23 13:00:48;;;;;;;12.43;3.85;;;;;;;;;;5005423;28;20183;-87
2023/05/23 13:03:15;;;;;;;9.05;2.65;;;;;;;;;;5014597;28;20037;-87
2023/05/23 13:05:41;;;;;;;6.38;2.92;;;;;;;;;;4971727;28;20044;-87
2023/05/23 13:08:08;;;;;;;8.30;2.95;;;;;;;;;;4993506;28;20045;-87
2023/05/23 13:10:34;;;;;;;14.32;3.58;;;;;;;;;;4975702;28;20034;-87
2023/05/23 13:13:01;;;;;;;10.68;3.13;;;;;;;;;;4981782;28;20068;-87
2023/05/23 13:15:27;;;;;;;14.30;4.07;;;;;;;;;;4972985;28;20068;-87
2023/05/23 13:17:53;;;;;;;13.35;3.40;;;;;;;;;;5000395;28;20052;-86
2023/05/23 13:20:19;;;;;;;10.02;2.67;;;;;;;;;;5008948;28;20384;-87
2023/05/23 13:22:46;;;;;;;9.48;2.65;;;;;;;;;;4998361;28;21123;-86
2023/05/23 13:25:12;;;;;;;11.75;3.17;;;;;;;;;;5027110;28;20053;-86
2023/05/23 13:27:38;;;;;;;12.45;2.88;;;;;;;;;;4983214;28;20382;-87
2023/05/23 13:30:05;;;;;;;8.68;2.95;;;;;;;;;;4982701;28;20048;-86
2023/05/23 13:32:31;;;;;;;9.30;2.70;;;;;;;;;;4991827;28;20080;-86
2023/05/23 13:34:57;;;;;;;10.82;2.50;;;;;;;;;;4998048;28;20048;-87
2023/05/23 13:37:23;;;;;;;8.65;2.75;;;;;;;;;;5007842;28;20036;-86
2023/05/23 13:39:49;;;;;;;8.07;2.55;;;;;;;;;;4962457;28;20041;-86
2023/05/23 13:42:15;;;;;;;10.35;2.78;;;;;;;;;;5007791;28;20428;-87
2023/05/23 13:44:41;;;;;;;13.05;3.00;;;;;;;;;;5007005;28;20094;-87
2023/05/23 13:47:11;;;;;;;9.88;2.70;;;;;;;;;;4975671;28;20474;-86
2023/05/23 13:49:37;;;;;;;8.77;2.47;;;;;;;;;;4985300;28;20037;-87
2023/05/23 13:52:04;;;;;;;10.50;2.72;;;;;;;;;;4981180;28;23316;-86
2023/05/23 13:54:30;;;;;;;12.10;2.65;;;;;;;;;;4991281;28;20042;-87
2023/05/23 13:56:56;;;;;;;20.85;9.68;;;;;;;;;;5009506;28;20045;-87
2023/05/23 13:59:23;;;;;;;9.20;6.15;;;;;;;;;;5009853;28;20129;-86
2023/05/23 14:01:49;;;;;;;12.02;6.07;;;;;;;;;;5006726;28;20037;-87
2023/05/23 14:04:16;;;;;;;10.00;2.75;;;;;;;;;;4995071;28;20885;-87
2023/05/23 14:06:42;;;;;;;10.10;3.55;;;;;;;;;;5002577;28;20052;-87
2023/05/23 14:09:08;;;;;;;9.10;3.45;;;;;;;;;;4996059;28;20049;-86
2023/05/23 14:11:34;;;;;;;6.50;2.53;;;;;;;;;;4997177;28;20041;-86
2023/05/23 14:14:00;;;;;;;9.10;2.30;;;;;;;;;;5000313;28;20633;-86
2023/05/23 14:16:27;;;;;;;9.73;2.78;;;;;;;;;;4999201;28;21988;-87
2023/05/23 14:18:53;;;;;;;9.88;2.22;;;;;;;;;;4987288;28;20051;-87
2023/05/23 14:21:19;;;;;;;8.60;2.35;;;;;;;;;;5005693;28;20086;-87
2023/05/23 14:23:45;;;;;;;10.60;2.80;;;;;;;;;;4978588;28;20871;-86
2023/05/23 14:26:11;;;;;;;11.38;2.92;;;;;;;;;;4961405;28;20045;-86
2023/05/23 14:28:37;;;;;;;25.90;15.25;;;;;;;;;;4990208;28;23112;-86
2023/05/23 14:31:04;;;;;;;14.25;9.63;;;;;;;;;;4982844;28;20049;-87
2023/05/23 14:33:30;;;;;;;11.73;5.30;;;;;;;;;;4982813;28;20081;-86
2023/05/23 14:35:56;;;;;;;8.23;3.22;;;;;;;;;;4955345;28;20049;-86
2023/05/23 14:38:23;;;;;;;9.75;4.68;;;;;;;;;;4969958;28;20517;-86
2023/05/23 14:40:49;;;;;;;8.07;2.63;;;;;;;;;;4981309;28;20049;-86
2023/05/23 14:43:15;;;;;;;11.07;3.15;;;;;;;;;;4989087;28;20415;-86
2023/05/23 14:45:41;;;;;;;13.88;4.15;;;;;;;;;;4971192;28;20038;-86
2023/05/23 14:48:08;;;;;;;10.77;2.90;;;;;;;;;;4973436;28;20038;-87
2023/05/23 14:50:35;;;;;;;12.40;3.07;;;;;;;;;;4970420;28;20411;-86
2023/05/23 14:53:01;;;;;;;10.30;3.17;;;;;;;;;;4993139;28;20046;-86
2023/05/23 14:55:27;;;;;;;9.23;2.80;;;;;;;;;;4985943;28;20393;-86
2023/05/23 14:57:53;;;;;;;12.50;3.25;;;;;;;;;;4973090;28;20438;-86
2023/05/23 15:00:20;;;;;;;11.70;2.90;;;;;;;;;;4988584;28;20041;-86
2023/05/23 15:02:46;;;;;;;7.32;2.47;;;;;;;;;;4986955;28;22557;-86
2023/05/23 15:05:14;;;;;;;12.75;3.05;;;;;;;;;;4950602;28;20390;-86
2023/05/23 15:07:40;;;;;;;9.25;2.65;;;;;;;;;;4971790;28;20045;-86
2023/05/23 15:10:07;;;;;;;11.10;2.80;;;;;;;;;;4988028;28;20037;-86
2023/05/23 15:12:33;;;;;;;15.02;3.97;;;;;;;;;;4980473;28;20438;-86
2023/05/23 15:15:02;;;;;;;16.42;3.20;;;;;;;;;;4966790;28;20048;-86
2023/05/23 15:17:32;;;;;;;8.57;2.60;;;;;;;;;;5010933;28;20052;-86
2023/05/23 15:19:58;;;;;;;11.27;2.85;;;;;;;;;;4969936;28;20064;-86
2023/05/23 15:22:25;;;;;;;9.25;2.92;;;;;;;;;;4990751;28;20056;-86
2023/05/23 15:24:51;;;;;;;12.90;3.10;;;;;;;;;;4968888;28;20042;-86
2023/05/23 15:27:17;;;;;;;12.75;3.15;;;;;;;;;;4966964;28;20885;-86
2023/05/23 15:29:46;;;;;;;10.93;2.95;;;;;;;;;;4974401;28;20183;-86
2023/05/23 15:32:13;;;;;;;11.85;3.47;;;;;;;;;;4998016;28;20124;-86
2023/05/23 15:34:39;;;;;;;12.85;3.45;;;;;;;;;;4988819;28;20449;-86
2023/05/23 15:37:05;;;;;;;12.30;3.08;;;;;;;;;;4970657;28;20041;-86